sensor_id;sensor_type;location;lat;lon;timestamp;P1;durP1;ratioP1;P2;durP2;ratioP2
60354;SDS011;46198;51.464;-0.066;2022-08-03T00:01:42;10.40;;;3.10;;
60354;SDS011;46198;51.464;-0.066;2022-08-03T00:04:11;11.20;;;3.40;;
60354;SDS011;46198;51.464;-0.066;2022-08-03T00:06:39;11.48;;;3.55;;
60354;SDS011;46198;51.464;-0.066;2022-08-03T00:09:09;9.70;;;2.80;;
60354;SDS011;46198;51.464;-0.066;2022-08-03T00:11:37;12.93;;;3.73;;
60354;SDS011;46198;51.464;-0.066;2022-08-03T00:14:06;11.88;;;3.55;;
60354;SDS011;46198;51.464;-0.066;2022-08-03T00:16:34;16.67;;;3.85;;
60354;SDS011;46198;51.464;-0.066;2022-08-03T00:19:02;9.52;;;3.25;;
60354;SDS011;46198;51.464;-0.066;2022-08-03T00:21:30;12.48;;;3.35;;
60354;SDS011;46198;51.464;-0.066;2022-08-03T00:23:59;12.55;;;3.42;;
60354;SDS011;46198;51.464;-0.066;2022-08-03T00:26:28;12.45;;;3.08;;
60354;SDS011;46198;51.464;-0.066;2022-08-03T00:28:57;9.75;;;3.15;;
60354;SDS011;46198;51.464;-0.066;2022-08-03T00:31:25;12.43;;;4.20;;
60354;SDS011;46198;51.464;-0.066;2022-08-03T00:34:13;12.38;;;3.30;;
60354;SDS011;46198;51.464;-0.066;2022-08-03T00:36:41;13.70;;;3.83;;
60354;SDS011;46198;51.464;-0.066;2022-08-03T00:39:09;13.05;;;3.65;;
60354;SDS011;46198;51.464;-0.066;2022-08-03T00:41:38;9.27;;;3.60;;
60354;SDS011;46198;51.464;-0.066;2022-08-03T00:44:06;12.73;;;3.80;;
60354;SDS011;46198;51.464;-0.066;2022-08-03T00:46:35;13.25;;;3.53;;
60354;SDS011;46198;51.464;-0.066;2022-08-03T00:49:03;14.65;;;3.65;;
60354;SDS011;46198;51.464;-0.066;2022-08-03T00:51:31;11.38;;;3.42;;
60354;SDS011;46198;51.464;-0.066;2022-08-03T00:54:00;12.38;;;3.78;;
60354;SDS011;46198;51.464;-0.066;2022-08-03T00:56:28;11.70;;;3.30;;
60354;SDS011;46198;51.464;-0.066;2022-08-03T00:58:58;9.65;;;3.50;;
60354;SDS011;46198;51.464;-0.066;2022-08-03T01:01:27;11.60;;;4.00;;
60354;SDS011;46198;51.464;-0.066;2022-08-03T01:03:58;8.27;;;3.67;;
60354;SDS011;46198;51.464;-0.066;2022-08-03T01:06:29;12.40;;;4.03;;
60354;SDS011;46198;51.464;-0.066;2022-08-03T01:09:08;13.52;;;4.20;;
60354;SDS011;46198;51.464;-0.066;2022-08-03T01:11:43;11.52;;;3.67;;
60354;SDS011;46198;51.464;-0.066;2022-08-03T01:14:31;15.52;;;5.13;;
60354;SDS011;46198;51.464;-0.066;2022-08-03T01:17:04;10.48;;;3.22;;
60354;SDS011;46198;51.464;-0.066;2022-08-03T01:19:40;12.95;;;3.67;;
60354;SDS011;46198;51.464;-0.066;2022-08-03T01:22:20;13.73;;;3.75;;
60354;SDS011;46198;51.464;-0.066;2022-08-03T01:25:02;11.98;;;3.75;;
60354;SDS011;46198;51.464;-0.066;2022-08-03T01:27:40;14.43;;;4.40;;
60354;SDS011;46198;51.464;-0.066;2022-08-03T01:30:19;12.02;;;3.13;;
60354;SDS011;46198;51.464;-0.066;2022-08-03T01:32:54;11.52;;;3.85;;
60354;SDS011;46198;51.464;-0.066;2022-08-03T01:35:29;13.93;;;3.40;;
60354;SDS011;46198;51.464;-0.066;2022-08-03T01:38:06;10.57;;;3.30;;
60354;SDS011;46198;51.464;-0.066;2022-08-03T01:40:38;17.63;;;4.55;;
60354;SDS011;46198;51.464;-0.066;2022-08-03T01:43:08;10.95;;;3.58;;
60354;SDS011;46198;51.464;-0.066;2022-08-03T01:46:00;12.07;;;4.10;;
60354;SDS011;46198;51.464;-0.066;2022-08-03T01:50:58;12.30;;;3.30;;
60354;SDS011;46198;51.464;-0.066;2022-08-03T01:53:27;11.45;;;3.35;;
60354;SDS011;46198;51.464;-0.066;2022-08-03T01:58:26;9.35;;;3.85;;
60354;SDS011;46198;51.464;-0.066;2022-08-03T02:00:56;9.43;;;4.25;;
60354;SDS011;46198;51.464;-0.066;2022-08-03T02:03:28;12.00;;;3.80;;
60354;SDS011;46198;51.464;-0.066;2022-08-03T02:05:59;11.00;;;3.35;;
60354;SDS011;46198;51.464;-0.066;2022-08-03T02:08:48;9.88;;;4.05;;
60354;SDS011;46198;51.464;-0.066;2022-08-03T02:11:20;13.07;;;4.03;;
60354;SDS011;46198;51.464;-0.066;2022-08-03T02:13:49;12.73;;;3.75;;
60354;SDS011;46198;51.464;-0.066;2022-08-03T02:16:18;12.20;;;4.07;;
60354;SDS011;46198;51.464;-0.066;2022-08-03T02:18:50;11.52;;;3.88;;
60354;SDS011;46198;51.464;-0.066;2022-08-03T02:21:20;10.02;;;3.95;;
60354;SDS011;46198;51.464;-0.066;2022-08-03T02:24:09;10.82;;;4.63;;
60354;SDS011;46198;51.464;-0.066;2022-08-03T02:26:38;12.68;;;5.22;;
60354;SDS011;46198;51.464;-0.066;2022-08-03T02:29:11;8.35;;;4.60;;
60354;SDS011;46198;51.464;-0.066;2022-08-03T02:31:43;11.25;;;5.07;;
60354;SDS011;46198;51.464;-0.066;2022-08-03T02:34:15;13.50;;;5.53;;
60354;SDS011;46198;51.464;-0.066;2022-08-03T02:36:48;11.85;;;5.47;;
60354;SDS011;46198;51.464;-0.066;2022-08-03T02:41:49;14.05;;;5.68;;
60354;SDS011;46198;51.464;-0.066;2022-08-03T02:44:21;10.15;;;5.40;;
60354;SDS011;46198;51.464;-0.066;2022-08-03T02:46:52;14.77;;;6.25;;
60354;SDS011;46198;51.464;-0.066;2022-08-03T02:49:26;15.93;;;6.75;;
60354;SDS011;46198;51.464;-0.066;2022-08-03T02:52:16;15.05;;;6.80;;
60354;SDS011;46198;51.464;-0.066;2022-08-03T02:54:46;12.70;;;6.63;;
60354;SDS011;46198;51.464;-0.066;2022-08-03T02:57:17;20.00;;;7.75;;
60354;SDS011;46198;51.464;-0.066;2022-08-03T02:59:48;15.25;;;7.63;;
60354;SDS011;46198;51.464;-0.066;2022-08-03T03:02:17;17.98;;;9.05;;
60354;SDS011;46198;51.464;-0.066;2022-08-03T03:04:48;21.13;;;9.13;;
60354;SDS011;46198;51.464;-0.066;2022-08-03T03:07:38;22.88;;;9.70;;
60354;SDS011;46198;51.464;-0.066;2022-08-03T03:10:18;20.27;;;10.07;;
60354;SDS011;46198;51.464;-0.066;2022-08-03T03:12:48;20.93;;;10.30;;
60354;SDS011;46198;51.464;-0.066;2022-08-03T03:15:17;19.33;;;10.37;;
60354;SDS011;46198;51.464;-0.066;2022-08-03T03:17:46;17.63;;;10.13;;
60354;SDS011;46198;51.464;-0.066;2022-08-03T03:20:17;19.38;;;10.48;;
60354;SDS011;46198;51.464;-0.066;2022-08-03T03:22:57;16.80;;;9.15;;
60354;SDS011;46198;51.464;-0.066;2022-08-03T03:25:26;19.33;;;8.98;;
60354;SDS011;46198;51.464;-0.066;2022-08-03T03:27:57;15.90;;;8.25;;
60354;SDS011;46198;51.464;-0.066;2022-08-03T03:30:26;17.10;;;8.73;;
60354;SDS011;46198;51.464;-0.066;2022-08-03T03:32:55;13.65;;;8.13;;
60354;SDS011;46198;51.464;-0.066;2022-08-03T03:35:26;11.00;;;6.60;;
60354;SDS011;46198;51.464;-0.066;2022-08-03T03:37:54;12.10;;;6.60;;
60354;SDS011;46198;51.464;-0.066;2022-08-03T03:40:23;13.35;;;7.20;;
60354;SDS011;46198;51.464;-0.066;2022-08-03T03:42:52;15.18;;;7.05;;
60354;SDS011;46198;51.464;-0.066;2022-08-03T03:45:20;22.98;;;7.63;;
60354;SDS011;46198;51.464;-0.066;2022-08-03T03:47:49;20.67;;;6.75;;
60354;SDS011;46198;51.464;-0.066;2022-08-03T03:50:17;14.90;;;6.38;;
60354;SDS011;46198;51.464;-0.066;2022-08-03T03:52:48;11.25;;;6.50;;
60354;SDS011;46198;51.464;-0.066;2022-08-03T03:55:16;13.57;;;5.95;;
60354;SDS011;46198;51.464;-0.066;2022-08-03T03:57:44;12.68;;;5.80;;
60354;SDS011;46198;51.464;-0.066;2022-08-03T04:00:13;12.05;;;5.85;;
60354;SDS011;46198;51.464;-0.066;2022-08-03T04:02:43;12.43;;;6.30;;
60354;SDS011;46198;51.464;-0.066;2022-08-03T04:05:12;11.98;;;6.22;;
60354;SDS011;46198;51.464;-0.066;2022-08-03T04:08:00;14.25;;;6.55;;
60354;SDS011;46198;51.464;-0.066;2022-08-03T04:10:53;12.98;;;7.60;;
60354;SDS011;46198;51.464;-0.066;2022-08-03T04:13:31;13.30;;;7.82;;
60354;SDS011;46198;51.464;-0.066;2022-08-03T04:16:01;14.80;;;7.13;;
60354;SDS011;46198;51.464;-0.066;2022-08-03T04:18:32;13.85;;;6.63;;
60354;SDS011;46198;51.464;-0.066;2022-08-03T04:21:04;11.55;;;7.20;;
60354;SDS011;46198;51.464;-0.066;2022-08-03T04:23:36;11.20;;;6.10;;
60354;SDS011;46198;51.464;-0.066;2022-08-03T04:26:08;18.25;;;7.07;;
60354;SDS011;46198;51.464;-0.066;2022-08-03T04:28:38;10.65;;;6.43;;
60354;SDS011;46198;51.464;-0.066;2022-08-03T04:31:10;16.10;;;7.10;;
60354;SDS011;46198;51.464;-0.066;2022-08-03T04:33:40;13.85;;;7.45;;
60354;SDS011;46198;51.464;-0.066;2022-08-03T04:36:11;12.07;;;6.50;;
60354;SDS011;46198;51.464;-0.066;2022-08-03T04:38:48;12.38;;;6.55;;
60354;SDS011;46198;51.464;-0.066;2022-08-03T04:41:22;14.75;;;7.30;;
60354;SDS011;46198;51.464;-0.066;2022-08-03T04:43:52;11.40;;;6.97;;
60354;SDS011;46198;51.464;-0.066;2022-08-03T04:46:24;12.15;;;6.38;;
60354;SDS011;46198;51.464;-0.066;2022-08-03T04:48:55;12.32;;;6.30;;
60354;SDS011;46198;51.464;-0.066;2022-08-03T04:51:24;12.48;;;6.72;;
60354;SDS011;46198;51.464;-0.066;2022-08-03T04:53:54;15.65;;;7.20;;
60354;SDS011;46198;51.464;-0.066;2022-08-03T04:56:22;11.48;;;6.68;;
60354;SDS011;46198;51.464;-0.066;2022-08-03T04:58:50;11.80;;;5.97;;
60354;SDS011;46198;51.464;-0.066;2022-08-03T05:01:18;8.02;;;5.05;;
60354;SDS011;46198;51.464;-0.066;2022-08-03T05:03:48;9.52;;;6.40;;
60354;SDS011;46198;51.464;-0.066;2022-08-03T05:06:17;11.60;;;4.95;;
60354;SDS011;46198;51.464;-0.066;2022-08-03T05:08:50;11.60;;;5.00;;
60354;SDS011;46198;51.464;-0.066;2022-08-03T05:11:20;13.02;;;5.70;;
60354;SDS011;46198;51.464;-0.066;2022-08-03T05:13:48;10.43;;;5.00;;
60354;SDS011;46198;51.464;-0.066;2022-08-03T05:16:17;8.98;;;5.28;;
60354;SDS011;46198;51.464;-0.066;2022-08-03T05:18:45;10.95;;;5.18;;
60354;SDS011;46198;51.464;-0.066;2022-08-03T05:21:13;11.68;;;5.65;;
60354;SDS011;46198;51.464;-0.066;2022-08-03T05:23:42;9.05;;;5.00;;
60354;SDS011;46198;51.464;-0.066;2022-08-03T05:26:11;10.35;;;5.00;;
60354;SDS011;46198;51.464;-0.066;2022-08-03T05:28:40;6.40;;;4.40;;
60354;SDS011;46198;51.464;-0.066;2022-08-03T05:31:17;8.13;;;4.10;;
60354;SDS011;46198;51.464;-0.066;2022-08-03T05:33:45;7.38;;;4.05;;
60354;SDS011;46198;51.464;-0.066;2022-08-03T05:36:14;9.80;;;4.03;;
60354;SDS011;46198;51.464;-0.066;2022-08-03T05:38:42;7.78;;;4.25;;
60354;SDS011;46198;51.464;-0.066;2022-08-03T05:41:10;9.00;;;4.38;;
60354;SDS011;46198;51.464;-0.066;2022-08-03T05:43:51;7.18;;;4.35;;
60354;SDS011;46198;51.464;-0.066;2022-08-03T05:46:20;9.57;;;5.25;;
60354;SDS011;46198;51.464;-0.066;2022-08-03T05:48:48;9.23;;;4.78;;
60354;SDS011;46198;51.464;-0.066;2022-08-03T05:51:16;9.07;;;4.55;;
60354;SDS011;46198;51.464;-0.066;2022-08-03T05:53:45;8.57;;;4.80;;
60354;SDS011;46198;51.464;-0.066;2022-08-03T05:56:13;10.55;;;4.72;;
60354;SDS011;46198;51.464;-0.066;2022-08-03T05:58:43;10.52;;;4.72;;
60354;SDS011;46198;51.464;-0.066;2022-08-03T06:01:13;9.45;;;5.07;;
60354;SDS011;46198;51.464;-0.066;2022-08-03T06:03:41;12.57;;;5.47;;
60354;SDS011;46198;51.464;-0.066;2022-08-03T06:06:09;11.82;;;5.18;;
60354;SDS011;46198;51.464;-0.066;2022-08-03T06:08:38;14.40;;;5.97;;
60354;SDS011;46198;51.464;-0.066;2022-08-03T06:11:06;13.13;;;6.13;;
60354;SDS011;46198;51.464;-0.066;2022-08-03T06:13:35;11.25;;;5.93;;
60354;SDS011;46198;51.464;-0.066;2022-08-03T06:16:04;11.98;;;6.13;;
60354;SDS011;46198;51.464;-0.066;2022-08-03T06:18:34;8.43;;;5.97;;
60354;SDS011;46198;51.464;-0.066;2022-08-03T06:21:02;17.67;;;6.93;;
60354;SDS011;46198;51.464;-0.066;2022-08-03T06:23:40;16.75;;;6.75;;
60354;SDS011;46198;51.464;-0.066;2022-08-03T06:26:20;11.50;;;5.97;;
60354;SDS011;46198;51.464;-0.066;2022-08-03T06:28:48;10.98;;;6.93;;
60354;SDS011;46198;51.464;-0.066;2022-08-03T06:31:20;12.00;;;6.30;;
60354;SDS011;46198;51.464;-0.066;2022-08-03T06:34:03;10.32;;;6.28;;
60354;SDS011;46198;51.464;-0.066;2022-08-03T06:36:52;9.43;;;6.95;;
60354;SDS011;46198;51.464;-0.066;2022-08-03T06:39:26;9.48;;;5.70;;
60354;SDS011;46198;51.464;-0.066;2022-08-03T06:41:55;12.45;;;6.28;;
60354;SDS011;46198;51.464;-0.066;2022-08-03T06:44:23;13.50;;;5.82;;
60354;SDS011;46198;51.464;-0.066;2022-08-03T06:46:51;9.50;;;6.10;;
60354;SDS011;46198;51.464;-0.066;2022-08-03T06:49:21;11.27;;;6.20;;
60354;SDS011;46198;51.464;-0.066;2022-08-03T06:51:49;8.97;;;5.60;;
60354;SDS011;46198;51.464;-0.066;2022-08-03T06:54:39;8.63;;;4.60;;
60354;SDS011;46198;51.464;-0.066;2022-08-03T06:57:08;6.68;;;4.60;;
60354;SDS011;46198;51.464;-0.066;2022-08-03T06:59:37;7.53;;;4.78;;
60354;SDS011;46198;51.464;-0.066;2022-08-03T07:02:25;9.35;;;4.15;;
60354;SDS011;46198;51.464;-0.066;2022-08-03T07:04:55;9.85;;;5.15;;
60354;SDS011;46198;51.464;-0.066;2022-08-03T07:07:23;6.97;;;3.73;;
60354;SDS011;46198;51.464;-0.066;2022-08-03T07:09:52;9.60;;;4.47;;
60354;SDS011;46198;51.464;-0.066;2022-08-03T07:12:27;7.40;;;3.97;;
60354;SDS011;46198;51.464;-0.066;2022-08-03T07:14:56;6.80;;;3.42;;
60354;SDS011;46198;51.464;-0.066;2022-08-03T07:17:29;6.15;;;3.03;;
60354;SDS011;46198;51.464;-0.066;2022-08-03T07:20:00;7.32;;;3.88;;
60354;SDS011;46198;51.464;-0.066;2022-08-03T07:22:30;5.50;;;3.28;;
60354;SDS011;46198;51.464;-0.066;2022-08-03T07:24:58;4.60;;;3.00;;
60354;SDS011;46198;51.464;-0.066;2022-08-03T07:27:26;7.30;;;4.03;;
60354;SDS011;46198;51.464;-0.066;2022-08-03T07:29:56;9.10;;;3.90;;
60354;SDS011;46198;51.464;-0.066;2022-08-03T07:32:25;9.98;;;3.75;;
60354;SDS011;46198;51.464;-0.066;2022-08-03T07:34:53;7.28;;;3.78;;
60354;SDS011;46198;51.464;-0.066;2022-08-03T07:37:28;8.23;;;3.13;;
60354;SDS011;46198;51.464;-0.066;2022-08-03T07:39:57;6.57;;;3.38;;
60354;SDS011;46198;51.464;-0.066;2022-08-03T07:42:25;4.78;;;3.20;;
60354;SDS011;46198;51.464;-0.066;2022-08-03T07:44:54;5.60;;;3.15;;
60354;SDS011;46198;51.464;-0.066;2022-08-03T07:47:23;5.63;;;3.50;;
60354;SDS011;46198;51.464;-0.066;2022-08-03T07:50:02;8.15;;;3.45;;
60354;SDS011;46198;51.464;-0.066;2022-08-03T07:52:35;6.47;;;3.28;;
60354;SDS011;46198;51.464;-0.066;2022-08-03T07:55:17;4.90;;;3.30;;
60354;SDS011;46198;51.464;-0.066;2022-08-03T07:57:47;8.02;;;3.33;;
60354;SDS011;46198;51.464;-0.066;2022-08-03T08:00:25;6.05;;;3.97;;
60354;SDS011;46198;51.464;-0.066;2022-08-03T08:02:54;7.80;;;3.72;;
60354;SDS011;46198;51.464;-0.066;2022-08-03T08:05:22;4.70;;;3.97;;
60354;SDS011;46198;51.464;-0.066;2022-08-03T08:07:52;5.95;;;4.30;;
60354;SDS011;46198;51.464;-0.066;2022-08-03T08:10:20;6.40;;;4.50;;
60354;SDS011;46198;51.464;-0.066;2022-08-03T08:12:48;5.28;;;4.13;;
60354;SDS011;46198;51.464;-0.066;2022-08-03T08:15:17;4.53;;;3.72;;
60354;SDS011;46198;51.464;-0.066;2022-08-03T08:17:47;6.10;;;3.92;;
60354;SDS011;46198;51.464;-0.066;2022-08-03T08:20:18;4.55;;;4.00;;
60354;SDS011;46198;51.464;-0.066;2022-08-03T08:22:55;7.82;;;3.90;;
60354;SDS011;46198;51.464;-0.066;2022-08-03T08:25:27;4.22;;;3.38;;
60354;SDS011;46198;51.464;-0.066;2022-08-03T08:27:57;6.60;;;3.85;;
60354;SDS011;46198;51.464;-0.066;2022-08-03T08:30:48;4.72;;;3.10;;
60354;SDS011;46198;51.464;-0.066;2022-08-03T08:33:16;4.57;;;2.95;;
60354;SDS011;46198;51.464;-0.066;2022-08-03T08:35:50;5.55;;;3.20;;
60354;SDS011;46198;51.464;-0.066;2022-08-03T08:38:21;3.80;;;3.15;;
60354;SDS011;46198;51.464;-0.066;2022-08-03T08:40:49;3.50;;;3.20;;
60354;SDS011;46198;51.464;-0.066;2022-08-03T08:43:21;5.93;;;2.58;;
60354;SDS011;46198;51.464;-0.066;2022-08-03T08:45:49;3.38;;;2.28;;
60354;SDS011;46198;51.464;-0.066;2022-08-03T08:48:21;3.47;;;2.15;;
60354;SDS011;46198;51.464;-0.066;2022-08-03T08:50:51;2.63;;;2.40;;
60354;SDS011;46198;51.464;-0.066;2022-08-03T08:53:22;3.75;;;2.75;;
60354;SDS011;46198;51.464;-0.066;2022-08-03T08:55:54;5.85;;;2.50;;
60354;SDS011;46198;51.464;-0.066;2022-08-03T08:58:27;2.63;;;2.20;;
60354;SDS011;46198;51.464;-0.066;2022-08-03T09:00:58;2.92;;;2.65;;
60354;SDS011;46198;51.464;-0.066;2022-08-03T09:03:26;3.15;;;2.00;;
60354;SDS011;46198;51.464;-0.066;2022-08-03T09:05:58;2.33;;;2.17;;
60354;SDS011;46198;51.464;-0.066;2022-08-03T09:08:30;2.92;;;2.35;;
60354;SDS011;46198;51.464;-0.066;2022-08-03T09:10:59;2.60;;;2.40;;
60354;SDS011;46198;51.464;-0.066;2022-08-03T09:13:27;2.75;;;2.50;;
60354;SDS011;46198;51.464;-0.066;2022-08-03T09:16:07;2.50;;;2.30;;
60354;SDS011;46198;51.464;-0.066;2022-08-03T09:18:37;2.55;;;2.05;;
60354;SDS011;46198;51.464;-0.066;2022-08-03T09:21:17;2.30;;;1.90;;
60354;SDS011;46198;51.464;-0.066;2022-08-03T09:24:05;2.45;;;1.83;;
60354;SDS011;46198;51.464;-0.066;2022-08-03T09:26:49;1.80;;;1.70;;
60354;SDS011;46198;51.464;-0.066;2022-08-03T09:29:19;4.05;;;1.85;;
60354;SDS011;46198;51.464;-0.066;2022-08-03T09:31:48;1.83;;;1.48;;
60354;SDS011;46198;51.464;-0.066;2022-08-03T09:35:44;3.63;;;1.40;;
60354;SDS011;46198;51.464;-0.066;2022-08-03T09:46:52;4.32;;;1.70;;
60354;SDS011;46198;51.464;-0.066;2022-08-03T09:49:22;2.22;;;1.60;;
60354;SDS011;46198;51.464;-0.066;2022-08-03T09:51:51;1.77;;;1.63;;
60354;SDS011;46198;51.464;-0.066;2022-08-03T09:54:40;2.88;;;1.70;;
60354;SDS011;46198;51.464;-0.066;2022-08-03T09:57:19;2.70;;;1.45;;
60354;SDS011;46198;51.464;-0.066;2022-08-03T10:03:05;2.90;;;1.88;;
60354;SDS011;46198;51.464;-0.066;2022-08-03T10:05:52;3.05;;;1.80;;
60354;SDS011;46198;51.464;-0.066;2022-08-03T10:08:25;1.60;;;1.50;;
60354;SDS011;46198;51.464;-0.066;2022-08-03T10:10:55;1.98;;;1.50;;
60354;SDS011;46198;51.464;-0.066;2022-08-03T10:13:24;2.25;;;1.48;;
60354;SDS011;46198;51.464;-0.066;2022-08-03T10:15:52;2.03;;;1.60;;
60354;SDS011;46198;51.464;-0.066;2022-08-03T10:18:42;3.17;;;1.45;;
60354;SDS011;46198;51.464;-0.066;2022-08-03T10:21:10;4.33;;;1.47;;
60354;SDS011;46198;51.464;-0.066;2022-08-03T10:23:43;2.75;;;1.35;;
60354;SDS011;46198;51.464;-0.066;2022-08-03T10:26:15;2.13;;;1.65;;
60354;SDS011;46198;51.464;-0.066;2022-08-03T10:28:46;4.28;;;2.05;;
60354;SDS011;46198;51.464;-0.066;2022-08-03T10:34:26;2.17;;;1.38;;
60354;SDS011;46198;51.464;-0.066;2022-08-03T10:37:00;3.53;;;1.10;;
60354;SDS011;46198;51.464;-0.066;2022-08-03T10:39:35;2.08;;;1.52;;
60354;SDS011;46198;51.464;-0.066;2022-08-03T10:42:04;1.67;;;1.10;;
60354;SDS011;46198;51.464;-0.066;2022-08-03T10:44:40;2.92;;;1.40;;
60354;SDS011;46198;51.464;-0.066;2022-08-03T10:47:09;4.05;;;1.25;;
60354;SDS011;46198;51.464;-0.066;2022-08-03T10:49:40;2.75;;;1.27;;
60354;SDS011;46198;51.464;-0.066;2022-08-03T11:01:50;2.88;;;1.10;;
60354;SDS011;46198;51.464;-0.066;2022-08-03T11:04:26;3.10;;;1.48;;
60354;SDS011;46198;51.464;-0.066;2022-08-03T11:09:52;2.60;;;1.08;;
60354;SDS011;46198;51.464;-0.066;2022-08-03T11:16:17;3.10;;;1.20;;
60354;SDS011;46198;51.464;-0.066;2022-08-03T11:18:55;2.42;;;1.08;;
60354;SDS011;46198;51.464;-0.066;2022-08-03T11:27:30;3.95;;;1.20;;
60354;SDS011;46198;51.464;-0.066;2022-08-03T11:30:01;3.22;;;1.00;;
60354;SDS011;46198;51.464;-0.066;2022-08-03T11:35:28;2.28;;;1.02;;
60354;SDS011;46198;51.464;-0.066;2022-08-03T11:38:11;1.23;;;1.10;;
60354;SDS011;46198;51.464;-0.066;2022-08-03T11:40:42;2.05;;;1.00;;
60354;SDS011;46198;51.464;-0.066;2022-08-03T11:46:12;3.58;;;1.33;;
60354;SDS011;46198;51.464;-0.066;2022-08-03T11:49:00;2.05;;;1.30;;
60354;SDS011;46198;51.464;-0.066;2022-08-03T11:55:00;5.10;;;1.40;;
60354;SDS011;46198;51.464;-0.066;2022-08-03T12:00:45;2.95;;;1.63;;
60354;SDS011;46198;51.464;-0.066;2022-08-03T12:03:14;3.45;;;1.50;;
60354;SDS011;46198;51.464;-0.066;2022-08-03T12:05:45;4.80;;;1.80;;
60354;SDS011;46198;51.464;-0.066;2022-08-03T12:08:27;4.20;;;1.60;;
60354;SDS011;46198;51.464;-0.066;2022-08-03T12:10:58;2.08;;;1.30;;
60354;SDS011;46198;51.464;-0.066;2022-08-03T12:13:36;4.47;;;1.52;;
60354;SDS011;46198;51.464;-0.066;2022-08-03T12:18:57;2.30;;;1.20;;
60354;SDS011;46198;51.464;-0.066;2022-08-03T12:21:26;1.65;;;1.50;;
60354;SDS011;46198;51.464;-0.066;2022-08-03T12:23:55;1.50;;;1.40;;
60354;SDS011;46198;51.464;-0.066;2022-08-03T12:26:26;3.80;;;1.27;;
60354;SDS011;46198;51.464;-0.066;2022-08-03T12:28:56;3.08;;;1.30;;
60354;SDS011;46198;51.464;-0.066;2022-08-03T12:31:24;4.35;;;1.50;;
60354;SDS011;46198;51.464;-0.066;2022-08-03T12:33:53;2.95;;;1.10;;
60354;SDS011;46198;51.464;-0.066;2022-08-03T12:36:25;4.30;;;1.40;;
60354;SDS011;46198;51.464;-0.066;2022-08-03T12:38:53;2.05;;;1.10;;
60354;SDS011;46198;51.464;-0.066;2022-08-03T12:41:27;2.35;;;1.15;;
60354;SDS011;46198;51.464;-0.066;2022-08-03T12:43:58;3.10;;;1.20;;
60354;SDS011;46198;51.464;-0.066;2022-08-03T12:46:29;1.42;;;1.33;;
60354;SDS011;46198;51.464;-0.066;2022-08-03T12:48:59;2.58;;;1.30;;
60354;SDS011;46198;51.464;-0.066;2022-08-03T12:51:30;2.72;;;1.00;;
60354;SDS011;46198;51.464;-0.066;2022-08-03T12:54:00;4.05;;;1.52;;
60354;SDS011;46198;51.464;-0.066;2022-08-03T12:56:28;5.43;;;1.58;;
60354;SDS011;46198;51.464;-0.066;2022-08-03T12:58:58;1.55;;;1.10;;
60354;SDS011;46198;51.464;-0.066;2022-08-03T13:01:34;4.70;;;1.40;;
60354;SDS011;46198;51.464;-0.066;2022-08-03T13:04:27;4.45;;;1.30;;
60354;SDS011;46198;51.464;-0.066;2022-08-03T13:06:59;2.15;;;1.00;;
60354;SDS011;46198;51.464;-0.066;2022-08-03T13:09:30;1.17;;;1.00;;
60354;SDS011;46198;51.464;-0.066;2022-08-03T13:12:08;6.43;;;1.10;;
60354;SDS011;46198;51.464;-0.066;2022-08-03T13:14:39;1.85;;;0.85;;
60354;SDS011;46198;51.464;-0.066;2022-08-03T13:17:08;1.52;;;0.80;;
60354;SDS011;46198;51.464;-0.066;2022-08-03T13:19:37;1.33;;;0.93;;
60354;SDS011;46198;51.464;-0.066;2022-08-03T13:22:10;4.22;;;1.33;;
60354;SDS011;46198;51.464;-0.066;2022-08-03T13:24:39;1.95;;;1.10;;
60354;SDS011;46198;51.464;-0.066;2022-08-03T13:27:07;1.60;;;1.13;;
60354;SDS011;46198;51.464;-0.066;2022-08-03T13:29:57;4.88;;;1.23;;
60354;SDS011;46198;51.464;-0.066;2022-08-03T13:32:25;2.00;;;0.85;;
60354;SDS011;46198;51.464;-0.066;2022-08-03T13:38:02;2.33;;;1.08;;
60354;SDS011;46198;51.464;-0.066;2022-08-03T13:40:31;2.50;;;0.82;;
60354;SDS011;46198;51.464;-0.066;2022-08-03T13:43:07;2.67;;;1.40;;
60354;SDS011;46198;51.464;-0.066;2022-08-03T13:45:37;2.40;;;1.30;;
60354;SDS011;46198;51.464;-0.066;2022-08-03T13:48:05;3.15;;;1.20;;
60354;SDS011;46198;51.464;-0.066;2022-08-03T13:51:55;1.40;;;1.27;;
60354;SDS011;46198;51.464;-0.066;2022-08-03T13:54:23;3.85;;;1.20;;
60354;SDS011;46198;51.464;-0.066;2022-08-03T14:00:50;2.05;;;1.50;;
60354;SDS011;46198;51.464;-0.066;2022-08-03T14:03:18;1.67;;;1.40;;
60354;SDS011;46198;51.464;-0.066;2022-08-03T14:05:46;2.30;;;1.38;;
60354;SDS011;46198;51.464;-0.066;2022-08-03T14:08:15;4.47;;;1.35;;
60354;SDS011;46198;51.464;-0.066;2022-08-03T14:10:43;3.00;;;1.30;;
60354;SDS011;46198;51.464;-0.066;2022-08-03T14:13:12;2.42;;;1.30;;
60354;SDS011;46198;51.464;-0.066;2022-08-03T14:20:11;2.55;;;1.20;;
60354;SDS011;46198;51.464;-0.066;2022-08-03T14:23:01;2.92;;;1.20;;
60354;SDS011;46198;51.464;-0.066;2022-08-03T14:25:30;3.60;;;1.20;;
60354;SDS011;46198;51.464;-0.066;2022-08-03T14:28:35;3.10;;;1.10;;
60354;SDS011;46198;51.464;-0.066;2022-08-03T14:31:03;1.65;;;1.08;;
60354;SDS011;46198;51.464;-0.066;2022-08-03T14:33:51;3.80;;;1.40;;
60354;SDS011;46198;51.464;-0.066;2022-08-03T14:40:53;3.80;;;1.20;;
60354;SDS011;46198;51.464;-0.066;2022-08-03T14:43:23;3.88;;;1.60;;
60354;SDS011;46198;51.464;-0.066;2022-08-03T14:45:59;3.60;;;1.10;;
60354;SDS011;46198;51.464;-0.066;2022-08-03T14:54:47;1.60;;;1.50;;
60354;SDS011;46198;51.464;-0.066;2022-08-03T14:57:18;6.28;;;1.80;;
60354;SDS011;46198;51.464;-0.066;2022-08-03T14:59:47;2.17;;;1.90;;
60354;SDS011;46198;51.464;-0.066;2022-08-03T15:02:22;2.25;;;1.70;;
60354;SDS011;46198;51.464;-0.066;2022-08-03T15:04:51;4.47;;;1.92;;
60354;SDS011;46198;51.464;-0.066;2022-08-03T15:07:19;2.75;;;2.30;;
60354;SDS011;46198;51.464;-0.066;2022-08-03T15:09:48;4.40;;;1.50;;
60354;SDS011;46198;51.464;-0.066;2022-08-03T15:12:16;4.10;;;2.10;;
60354;SDS011;46198;51.464;-0.066;2022-08-03T15:14:46;4.72;;;2.63;;
60354;SDS011;46198;51.464;-0.066;2022-08-03T15:17:15;4.43;;;2.40;;
60354;SDS011;46198;51.464;-0.066;2022-08-03T15:19:44;4.18;;;2.35;;
60354;SDS011;46198;51.464;-0.066;2022-08-03T15:22:33;2.78;;;2.03;;
60354;SDS011;46198;51.464;-0.066;2022-08-03T15:25:01;3.75;;;2.30;;
60354;SDS011;46198;51.464;-0.066;2022-08-03T15:27:50;2.58;;;2.10;;
60354;SDS011;46198;51.464;-0.066;2022-08-03T15:30:33;6.15;;;2.58;;
60354;SDS011;46198;51.464;-0.066;2022-08-03T15:33:04;3.33;;;2.20;;
60354;SDS011;46198;51.464;-0.066;2022-08-03T15:35:33;4.03;;;2.63;;
60354;SDS011;46198;51.464;-0.066;2022-08-03T15:38:01;5.72;;;3.00;;
60354;SDS011;46198;51.464;-0.066;2022-08-03T15:43:34;4.45;;;2.70;;
60354;SDS011;46198;51.464;-0.066;2022-08-03T15:46:14;3.17;;;2.72;;
60354;SDS011;46198;51.464;-0.066;2022-08-03T15:48:55;4.63;;;2.67;;
60354;SDS011;46198;51.464;-0.066;2022-08-03T15:51:23;5.20;;;2.50;;
60354;SDS011;46198;51.464;-0.066;2022-08-03T15:53:55;3.97;;;2.63;;
60354;SDS011;46198;51.464;-0.066;2022-08-03T15:56:26;3.60;;;2.45;;
60354;SDS011;46198;51.464;-0.066;2022-08-03T15:58:55;3.30;;;2.80;;
60354;SDS011;46198;51.464;-0.066;2022-08-03T16:01:42;6.15;;;3.05;;
60354;SDS011;46198;51.464;-0.066;2022-08-03T16:04:11;4.40;;;3.13;;
60354;SDS011;46198;51.464;-0.066;2022-08-03T16:06:42;4.40;;;2.80;;
60354;SDS011;46198;51.464;-0.066;2022-08-03T16:09:10;4.90;;;2.33;;
60354;SDS011;46198;51.464;-0.066;2022-08-03T16:12:00;3.42;;;2.20;;
60354;SDS011;46198;51.464;-0.066;2022-08-03T16:14:28;5.13;;;2.70;;
60354;SDS011;46198;51.464;-0.066;2022-08-03T16:17:19;4.70;;;2.30;;
60354;SDS011;46198;51.464;-0.066;2022-08-03T16:19:48;2.42;;;2.20;;
60354;SDS011;46198;51.464;-0.066;2022-08-03T16:22:20;3.13;;;2.05;;
60354;SDS011;46198;51.464;-0.066;2022-08-03T16:24:49;4.07;;;2.40;;
60354;SDS011;46198;51.464;-0.066;2022-08-03T16:27:19;5.93;;;2.17;;